Wyalusing, Pennsylvania
Current Conditions -  °F | °C
As of 9:54 AM on Monday 22 Dec 2014 (Local Time) from KAVP Reporting Station
Overcast Overcast  
Wind Chill: 27°   Ceiling: 1800
Heat Index: 35°   Visibility: 10mi
Dew Point: 26°   Wind: 12mph
Humidity: 70%   Direction: 170°S
Pressure: 30.28"   Gusts: 17mph
Location:  41.67°N, 76.26°W
Report Text: KAVP 221454Z AUTO 17010G15KT 10SM OVC018 02/M03 A3028 RMK AO2 SLP261 T00171033 51005
Loading
Personal Weather Stations






























Interactive Weather Map New forecast layout! Learn more

10-Day Weather Forecast

Advertisements
Track Severe Weather on mobile